createdAt,value
2022-10-05T00:00:26.770Z,80.66
2022-10-05T00:02:54.856Z,80.43
2022-10-05T00:05:27.230Z,80.18
2022-10-05T00:07:55.146Z,80.26
2022-10-05T00:10:21.908Z,80.80
2022-10-05T00:12:49.245Z,80.17
2022-10-05T00:15:19.163Z,79.74
2022-10-05T00:17:45.812Z,80.15
2022-10-05T00:20:17.574Z,80.30
2022-10-05T00:22:44.363Z,80.38
2022-10-05T00:25:19.299Z,79.45
2022-10-05T00:27:52.594Z,79.67
2022-10-05T00:30:20.933Z,79.31
2022-10-05T00:32:49.147Z,79.98
2022-10-05T00:35:17.598Z,80.32
2022-10-05T00:37:44.960Z,80.11
2022-10-05T00:40:19.958Z,79.95
2022-10-05T00:43:08.173Z,80.29
2022-10-05T00:45:43.509Z,80.41
2022-10-05T00:48:17.134Z,79.90
2022-10-05T00:50:46.583Z,80.02
2022-10-05T00:53:43.649Z,79.76
2022-10-05T00:56:29.150Z,79.61
2022-10-05T00:59:07.931Z,79.54
2022-10-05T01:02:00.127Z,79.63
2022-10-05T01:04:41.853Z,79.67
2022-10-05T01:07:22.356Z,80.03
2022-10-05T01:10:05.854Z,79.62
2022-10-05T01:12:41.143Z,79.50
2022-10-05T01:15:34.042Z,79.81
2022-10-05T01:18:10.683Z,81.19
2022-10-05T01:20:53.643Z,81.01
2022-10-05T01:23:30.280Z,80.97
2022-10-05T01:26:18.054Z,81.17
2022-10-05T01:28:48.925Z,82.07
2022-10-05T01:31:18.985Z,81.61
2022-10-05T01:33:57.787Z,81.83
2022-10-05T01:36:34.906Z,80.23
2022-10-05T01:39:24.963Z,79.51
2022-10-05T01:41:58.659Z,79.50
2022-10-05T01:44:36.389Z,79.19
2022-10-05T01:47:09.688Z,78.96
2022-10-05T01:49:38.342Z,79.48
2022-10-05T01:52:20.686Z,79.06
2022-10-05T01:55:04.384Z,79.28
2022-10-05T01:58:02.545Z,79.10
2022-10-05T02:00:41.090Z,78.80
2022-10-05T02:03:14.331Z,78.83
2022-10-05T02:05:48.737Z,79.98
2022-10-05T02:08:26.130Z,79.36
2022-10-05T02:10:55.737Z,79.63
2022-10-05T02:13:30.795Z,80.12
2022-10-05T02:16:04.039Z,79.95
2022-10-05T02:18:36.437Z,79.13
2022-10-05T02:21:04.902Z,79.28
2022-10-05T02:23:34.029Z,78.72
2022-10-05T02:26:01.296Z,78.63
2022-10-05T02:28:36.849Z,78.83
2022-10-05T02:31:09.495Z,78.90
2022-10-05T02:33:36.683Z,79.27
2022-10-05T02:36:24.273Z,79.15
2022-10-05T02:39:04.125Z,79.14
2022-10-05T02:41:34.001Z,78.90
2022-10-05T02:44:27.273Z,78.86
2022-10-05T02:47:15.942Z,79.01
2022-10-05T02:49:48.757Z,79.68
2022-10-05T02:52:24.370Z,80.54
2022-10-05T02:55:24.893Z,80.71
2022-10-05T02:58:01.939Z,80.08
2022-10-05T03:00:32.238Z,80.56
2022-10-05T03:03:28.261Z,80.38
2022-10-05T03:06:02.533Z,80.64
2022-10-05T03:08:54.449Z,81.24
2022-10-05T03:11:58.141Z,81.55
2022-10-05T03:14:53.191Z,80.87
2022-10-05T03:17:22.724Z,79.88
2022-10-05T03:20:07.960Z,79.43
2022-10-05T03:22:37.614Z,78.68
2022-10-05T03:25:35.710Z,77.69
2022-10-05T03:28:21.743Z,77.81
2022-10-05T03:30:56.180Z,78.50
2022-10-05T03:33:31.809Z,79.22
2022-10-05T03:36:16.848Z,79.66
2022-10-05T03:38:46.895Z,80.15
2022-10-05T03:41:23.240Z,80.91
2022-10-05T03:44:09.131Z,80.25
2022-10-05T03:47:25.458Z,80.39
2022-10-05T03:49:56.604Z,80.62
2022-10-05T03:52:32.272Z,80.98
2022-10-05T03:55:03.489Z,80.79
2022-10-05T03:57:34.132Z,81.42
2022-10-05T04:00:05.583Z,81.72
2022-10-05T04:03:13.084Z,82.36
2022-10-05T04:05:48.721Z,81.98
2022-10-05T04:08:48.141Z,81.78
2022-10-05T04:11:23.167Z,81.24
2022-10-05T04:13:54.728Z,81.00
2022-10-05T04:16:27.841Z,81.01
2022-10-05T04:19:01.405Z,81.02
2022-10-05T04:21:36.098Z,80.97
2022-10-05T04:24:11.954Z,81.05
2022-10-05T04:26:51.404Z,81.56
2022-10-05T04:29:30.226Z,81.79
2022-10-05T04:32:15.448Z,81.37
2022-10-05T04:35:14.336Z,81.67
2022-10-05T04:38:08.520Z,81.85
2022-10-05T04:40:38.327Z,81.56
2022-10-05T04:43:30.383Z,81.00
2022-10-05T04:46:15.822Z,82.07
2022-10-05T04:49:20.038Z,82.24
2022-10-05T04:52:04.970Z,81.91
2022-10-05T04:55:06.790Z,81.54
2022-10-05T04:57:52.285Z,80.81
2022-10-05T05:00:32.038Z,80.18
2022-10-05T05:03:04.571Z,80.13
2022-10-05T05:06:15.754Z,80.01
2022-10-05T05:09:09.977Z,80.24
2022-10-05T05:12:11.226Z,80.71
2022-10-05T05:15:04.432Z,80.92
2022-10-05T05:17:47.184Z,81.82
2022-10-05T05:20:22.711Z,82.23
2022-10-05T05:23:01.452Z,82.58
2022-10-05T05:25:47.215Z,82.60
2022-10-05T05:28:27.972Z,82.54
2022-10-05T05:31:09.189Z,81.90
2022-10-05T05:33:51.506Z,81.19
2022-10-05T05:36:26.715Z,80.02
2022-10-05T05:39:18.725Z,78.55
2022-10-05T05:42:04.342Z,79.10
2022-10-05T05:44:42.771Z,80.31
2022-10-05T05:47:20.337Z,80.33
2022-10-05T05:50:02.924Z,80.27
2022-10-05T05:52:41.245Z,79.48
2022-10-05T05:55:16.787Z,80.22
2022-10-05T05:58:04.328Z,80.29
2022-10-05T06:00:37.949Z,79.90
2022-10-05T06:03:13.436Z,79.56
2022-10-05T06:05:53.232Z,79.71
2022-10-05T06:08:39.937Z,79.65
2022-10-05T06:11:27.160Z,79.82
2022-10-05T06:13:56.198Z,79.82
2022-10-05T06:16:40.527Z,79.75
2022-10-05T06:19:27.995Z,79.78
2022-10-05T06:22:01.255Z,79.69
2022-10-05T06:24:53.781Z,79.68
2022-10-05T06:27:24.956Z,79.56
2022-10-05T06:30:14.132Z,79.42
2022-10-05T06:32:51.861Z,79.48
2022-10-05T06:35:36.354Z,79.98
2022-10-05T06:38:21.766Z,80.31
2022-10-05T06:41:26.874Z,80.34
2022-10-05T06:44:03.337Z,80.18
2022-10-05T06:46:52.874Z,80.76
2022-10-05T06:50:04.165Z,81.12
2022-10-05T06:53:02.090Z,81.11
2022-10-05T06:55:45.526Z,80.97
2022-10-05T06:58:50.115Z,81.86
2022-10-05T07:01:23.453Z,81.39
2022-10-05T07:04:03.534Z,80.96
2022-10-05T07:06:39.493Z,81.34
2022-10-05T07:09:21.334Z,81.25
2022-10-05T07:12:01.010Z,81.13
2022-10-05T07:14:39.207Z,80.79
2022-10-05T07:17:25.314Z,81.88
2022-10-05T07:20:23.003Z,81.82
2022-10-05T07:23:02.008Z,81.09
2022-10-05T07:25:30.232Z,81.61
2022-10-05T07:28:07.252Z,81.53
2022-10-05T07:30:44.021Z,81.80
2022-10-05T07:33:21.100Z,81.61
2022-10-05T07:36:14.633Z,81.08
2022-10-05T07:38:54.741Z,81.05
2022-10-05T07:41:31.163Z,81.08
2022-10-05T07:44:26.338Z,81.95
2022-10-05T07:47:01.644Z,81.13
2022-10-05T07:49:36.796Z,80.88
2022-10-05T07:52:13.076Z,81.47
2022-10-05T07:54:47.787Z,81.03
2022-10-05T07:57:21.705Z,81.34
2022-10-05T08:00:11.324Z,81.54
2022-10-05T08:02:56.608Z,81.73
2022-10-05T08:05:29.653Z,81.42
2022-10-05T08:08:19.640Z,82.16
2022-10-05T08:11:05.158Z,82.05
2022-10-05T08:13:39.291Z,81.85
2022-10-05T08:16:14.298Z,81.48
2022-10-05T08:19:02.423Z,82.35
2022-10-05T08:21:38.009Z,81.96
2022-10-05T08:24:22.966Z,82.45
2022-10-05T08:27:17.588Z,82.24
2022-10-05T08:29:55.661Z,82.40
2022-10-05T08:32:38.270Z,82.10
2022-10-05T08:35:26.931Z,82.52
2022-10-05T08:37:54.379Z,82.08
2022-10-05T08:40:39.623Z,82.85
2022-10-05T08:44:17.162Z,83.54
2022-10-05T08:47:05.769Z,82.97
2022-10-05T08:49:35.497Z,82.79
2022-10-05T08:52:11.067Z,82.95
2022-10-05T08:55:11.957Z,83.83
2022-10-05T08:57:59.749Z,83.71
2022-10-05T09:00:40.618Z,83.74
2022-10-05T09:03:18.965Z,83.77
2022-10-05T09:06:14.458Z,84.35
2022-10-05T09:08:47.173Z,84.42
2022-10-05T09:11:40.556Z,84.92
2022-10-05T09:14:52.416Z,84.91
2022-10-05T09:18:06.057Z,84.89
2022-10-05T09:20:55.428Z,85.64
2022-10-05T09:23:33.887Z,85.93
2022-10-05T09:26:39.200Z,86.19
2022-10-05T09:29:14.439Z,85.70
2022-10-05T09:32:06.921Z,85.67
2022-10-05T09:34:45.758Z,86.32
2022-10-05T09:37:39.881Z,86.43
2022-10-05T09:41:12.307Z,87.53
2022-10-05T09:44:07.058Z,86.72
2022-10-05T09:46:52.461Z,86.49
2022-10-05T09:49:47.793Z,86.88
2022-10-05T09:52:32.540Z,86.41
2022-10-05T09:55:17.928Z,86.45
2022-10-05T09:57:49.370Z,86.52
2022-10-05T10:00:58.749Z,86.92
2022-10-05T10:04:09.752Z,87.27
2022-10-05T10:06:42.323Z,87.30
2022-10-05T10:09:34.084Z,87.43
2022-10-05T10:12:31.122Z,88.42
2022-10-05T10:15:25.406Z,88.42
2022-10-05T10:18:01.858Z,88.66
2022-10-05T10:20:37.570Z,89.12
2022-10-05T10:23:21.610Z,89.33
2022-10-05T10:26:03.089Z,89.08
2022-10-05T10:28:52.091Z,89.32
2022-10-05T10:31:37.732Z,89.65
2022-10-05T10:34:28.687Z,90.33
2022-10-05T10:37:02.473Z,89.81
2022-10-05T10:40:02.709Z,92.58
2022-10-05T10:42:53.637Z,89.98
2022-10-05T10:45:46.672Z,89.90
2022-10-05T10:48:19.394Z,90.53
2022-10-05T10:51:31.915Z,90.55
2022-10-05T10:54:03.503Z,90.12
2022-10-05T10:56:48.233Z,90.06
2022-10-05T10:59:33.909Z,90.80
2022-10-05T11:02:19.617Z,91.12
2022-10-05T11:04:58.845Z,90.74
2022-10-05T11:08:22.692Z,91.82
2022-10-05T11:11:27.334Z,90.70
2022-10-05T11:14:21.006Z,91.15
2022-10-05T11:17:09.669Z,90.81
2022-10-05T11:20:09.195Z,91.82
2022-10-05T11:22:41.123Z,91.02
2022-10-05T11:25:20.613Z,90.86
2022-10-05T11:27:58.336Z,90.45
2022-10-05T11:30:37.193Z,90.37
2022-10-05T11:33:27.893Z,89.84
2022-10-05T11:36:08.746Z,89.54
2022-10-05T11:38:39.541Z,89.23
2022-10-05T11:41:27.917Z,88.87
2022-10-05T11:44:13.397Z,89.00
2022-10-05T11:46:55.152Z,88.95
2022-10-05T11:49:29.066Z,88.66
2022-10-05T11:52:04.508Z,88.87
2022-10-05T11:55:09.083Z,89.22
2022-10-05T11:57:39.246Z,89.18
2022-10-05T12:00:14.522Z,89.07
2022-10-05T12:02:56.373Z,89.51
2022-10-05T12:05:45.700Z,89.27
2022-10-05T12:08:45.489Z,89.15
2022-10-05T12:11:34.104Z,89.20
2022-10-05T12:14:05.746Z,89.31
2022-10-05T12:17:00.054Z,89.02
2022-10-05T12:19:40.992Z,88.78
2022-10-05T12:22:17.016Z,89.15
2022-10-05T12:25:12.171Z,89.09
2022-10-05T12:27:41.753Z,89.25
2022-10-05T12:30:32.129Z,89.33
2022-10-05T12:33:31.063Z,88.94
2022-10-05T12:36:05.925Z,88.98
2022-10-05T12:38:46.517Z,88.78
2022-10-05T12:41:36.464Z,89.48
2022-10-05T12:44:25.152Z,89.34
2022-10-05T12:46:54.228Z,89.30
2022-10-05T12:49:59.529Z,89.33
2022-10-05T12:52:55.924Z,89.26
2022-10-05T12:55:53.423Z,89.14
2022-10-05T12:58:42.046Z,89.25
2022-10-05T13:01:23.973Z,89.12
2022-10-05T13:04:05.849Z,89.44
2022-10-05T13:06:41.411Z,89.28
2022-10-05T13:09:12.890Z,89.70
2022-10-05T13:11:46.196Z,89.82
2022-10-05T13:14:31.398Z,90.00
2022-10-05T13:17:37.588Z,89.51
2022-10-05T13:20:16.356Z,88.90
2022-10-05T13:22:46.007Z,88.74
2022-10-05T13:25:21.716Z,87.94
2022-10-05T13:28:11.865Z,87.99
2022-10-05T13:30:41.378Z,88.08
2022-10-05T13:33:50.826Z,87.83
2022-10-05T13:36:44.169Z,88.11
2022-10-05T13:39:21.033Z,87.96
2022-10-05T13:42:10.396Z,87.54
2022-10-05T13:45:06.245Z,87.56
2022-10-05T13:47:39.149Z,87.21
2022-10-05T13:50:19.650Z,88.07
2022-10-05T13:52:58.537Z,87.71
2022-10-05T13:55:43.475Z,87.32
2022-10-05T13:58:22.942Z,87.19
2022-10-05T14:00:58.805Z,87.39
2022-10-05T14:03:30.868Z,87.72
2022-10-05T14:05:59.954Z,88.31
2022-10-05T14:08:29.901Z,88.64
2022-10-05T14:10:56.934Z,89.59
2022-10-05T14:13:32.658Z,89.63
2022-10-05T14:16:06.019Z,89.50
2022-10-05T14:18:36.406Z,89.81
2022-10-05T14:21:16.489Z,89.71
2022-10-05T14:23:43.512Z,89.94
2022-10-05T14:26:25.435Z,89.61
2022-10-05T14:29:00.730Z,89.83
2022-10-05T14:31:31.051Z,90.10
2022-10-05T14:34:21.729Z,90.35
2022-10-05T14:36:55.898Z,90.29
2022-10-05T14:39:27.002Z,90.34
2022-10-05T14:41:54.070Z,90.42
2022-10-05T14:44:23.860Z,90.98
2022-10-05T14:46:56.127Z,91.04
2022-10-05T14:49:37.271Z,91.38
2022-10-05T14:52:34.640Z,91.83
2022-10-05T14:55:14.284Z,91.82
2022-10-05T14:58:13.452Z,92.01
2022-10-05T15:00:56.922Z,91.74
2022-10-05T15:03:47.547Z,92.20
2022-10-05T15:06:35.443Z,92.36
2022-10-05T15:09:19.138Z,92.61
2022-10-05T15:11:48.650Z,92.75
2022-10-05T15:14:20.359Z,92.70
2022-10-05T15:16:50.648Z,93.25
2022-10-05T15:19:36.670Z,93.30
2022-10-05T15:22:07.186Z,93.44
2022-10-05T15:24:52.670Z,93.82
2022-10-05T15:27:42.113Z,93.67
2022-10-05T15:30:10.745Z,93.78
2022-10-05T15:32:52.241Z,93.42
2022-10-05T15:35:45.741Z,94.08
2022-10-05T15:38:21.395Z,94.46
2022-10-05T15:40:54.761Z,94.00
2022-10-05T15:43:23.140Z,94.35
2022-10-05T15:45:57.636Z,94.89
2022-10-05T15:48:32.864Z,94.79
2022-10-05T15:51:25.649Z,94.95
2022-10-05T15:54:24.027Z,95.28
2022-10-05T15:56:59.509Z,95.60
2022-10-05T15:59:31.191Z,96.23
2022-10-05T16:02:01.419Z,96.15
2022-10-05T16:05:07.799Z,96.50
2022-10-05T16:08:01.253Z,96.26
2022-10-05T16:10:27.874Z,97.61
2022-10-05T16:13:05.022Z,96.22
2022-10-05T16:15:35.557Z,96.56
2022-10-05T16:18:12.110Z,96.52
2022-10-05T16:20:50.053Z,97.06
2022-10-05T16:23:40.167Z,97.00
2022-10-05T16:26:09.083Z,96.77
2022-10-05T16:29:03.641Z,97.60
2022-10-05T16:31:53.991Z,97.16
2022-10-05T16:34:41.812Z,97.28
2022-10-05T16:37:20.665Z,97.02
2022-10-05T16:40:00.225Z,96.81
2022-10-05T16:42:38.953Z,96.85
2022-10-05T16:45:23.926Z,97.21
2022-10-05T16:48:04.209Z,96.90
2022-10-05T16:50:54.525Z,97.01
2022-10-05T16:53:54.519Z,96.65
2022-10-05T16:56:25.166Z,96.53
2022-10-05T16:59:10.992Z,97.12
2022-10-05T17:02:11.486Z,96.79
2022-10-05T17:04:57.890Z,96.44
2022-10-05T17:07:40.849Z,96.36
2022-10-05T17:10:10.426Z,96.31
2022-10-05T17:12:59.249Z,96.34
2022-10-05T17:16:18.497Z,96.53
2022-10-05T17:19:16.179Z,96.42
2022-10-05T17:21:46.680Z,95.86
2022-10-05T17:24:29.264Z,95.74
2022-10-05T17:27:17.964Z,95.85
2022-10-05T17:29:48.013Z,95.77
2022-10-05T17:32:15.661Z,95.43
2022-10-05T17:35:18.525Z,95.75
2022-10-05T17:38:41.872Z,95.47
2022-10-05T17:41:19.034Z,95.33
2022-10-05T17:44:13.568Z,95.40
2022-10-05T17:46:48.580Z,95.09
2022-10-05T17:49:34.106Z,95.46
2022-10-05T17:52:23.021Z,95.30
2022-10-05T17:55:08.444Z,95.03
2022-10-05T17:57:36.888Z,94.94
2022-10-05T18:00:31.403Z,94.95
2022-10-05T18:02:58.314Z,94.80
2022-10-05T18:05:29.550Z,94.49
2022-10-05T18:08:11.758Z,94.47
2022-10-05T18:10:59.352Z,94.43
2022-10-05T18:13:29.773Z,94.50
2022-10-05T18:15:56.446Z,94.31
2022-10-05T18:18:56.336Z,94.15
2022-10-05T18:21:35.394Z,94.10
2022-10-05T18:24:14.482Z,94.14
2022-10-05T18:27:19.830Z,94.26
2022-10-05T18:30:03.026Z,94.24
2022-10-05T18:33:04.826Z,93.97
2022-10-05T18:35:36.916Z,93.93
2022-10-05T18:38:23.918Z,93.78
2022-10-05T18:41:42.520Z,93.92
2022-10-05T18:44:14.768Z,93.79
2022-10-05T18:47:00.575Z,93.76
2022-10-05T18:50:11.995Z,93.77
2022-10-05T18:52:59.922Z,93.86
2022-10-05T18:55:33.230Z,93.61
2022-10-05T18:58:11.065Z,93.24
2022-10-05T19:00:44.066Z,93.44
2022-10-05T19:03:19.989Z,93.20
2022-10-05T19:06:03.590Z,93.18
2022-10-05T19:08:40.188Z,93.14
2022-10-05T19:11:27.739Z,93.27
2022-10-05T19:13:59.717Z,92.97
2022-10-05T19:16:49.507Z,92.89
2022-10-05T19:19:48.952Z,92.13
2022-10-05T19:22:37.106Z,92.34
2022-10-05T19:25:29.346Z,92.06
2022-10-05T19:28:07.763Z,92.07
2022-10-05T19:30:46.742Z,91.60
2022-10-05T19:33:55.469Z,92.08
2022-10-05T19:36:33.815Z,92.22
2022-10-05T19:39:13.800Z,91.58
2022-10-05T19:41:46.732Z,91.77
2022-10-05T19:44:35.366Z,91.49
2022-10-05T19:47:43.058Z,91.52
2022-10-05T19:50:28.093Z,90.72
2022-10-05T19:53:07.489Z,90.77
2022-10-05T19:55:43.829Z,90.82
2022-10-05T19:58:19.830Z,90.76
2022-10-05T20:01:07.282Z,91.02
2022-10-05T20:03:47.607Z,90.37
2022-10-05T20:06:14.606Z,90.86
2022-10-05T20:08:43.774Z,90.39
2022-10-05T20:11:14.323Z,90.52
2022-10-05T20:13:51.802Z,90.41
2022-10-05T20:16:48.373Z,89.78
2022-10-05T20:19:54.442Z,89.91
2022-10-05T20:22:33.614Z,89.87
2022-10-05T20:25:28.770Z,90.03
2022-10-05T20:27:56.450Z,90.06
2022-10-05T20:30:28.028Z,89.40
2022-10-05T20:32:59.624Z,89.81
2022-10-05T20:35:30.414Z,89.84
2022-10-05T20:38:01.295Z,89.98
2022-10-05T20:40:29.728Z,90.42
2022-10-05T20:42:57.891Z,90.69
2022-10-05T20:45:25.253Z,89.72
2022-10-05T20:47:52.391Z,89.38
2022-10-05T20:50:21.080Z,89.36
2022-10-05T20:52:48.156Z,89.38
2022-10-05T20:55:15.097Z,89.43
2022-10-05T20:57:42.324Z,89.01
2022-10-05T21:00:10.657Z,88.81
2022-10-05T21:02:38.130Z,89.20
2022-10-05T21:05:05.670Z,88.55
2022-10-05T21:07:34.305Z,88.60
2022-10-05T21:10:02.437Z,88.34
2022-10-05T21:12:29.402Z,88.08
2022-10-05T21:14:56.184Z,87.63
2022-10-05T21:17:23.027Z,87.78
2022-10-05T21:19:50.386Z,87.93
2022-10-05T21:22:17.333Z,88.17
2022-10-05T21:24:44.140Z,88.27
2022-10-05T21:27:11.077Z,88.02
2022-10-05T21:29:40.844Z,87.81
2022-10-05T21:32:11.355Z,87.80
2022-10-05T21:34:39.170Z,87.54
2022-10-05T21:37:06.052Z,87.57
2022-10-05T21:39:33.898Z,87.40
2022-10-05T21:42:00.593Z,87.87
2022-10-05T21:44:27.531Z,87.22
2022-10-05T21:46:55.118Z,86.85
2022-10-05T21:49:21.995Z,87.49
2022-10-05T21:51:48.835Z,87.08
2022-10-05T21:54:18.449Z,86.57
2022-10-05T21:56:48.857Z,86.55
2022-10-05T21:59:17.156Z,86.59
2022-10-05T22:01:44.110Z,87.64
2022-10-05T22:04:10.870Z,87.71
2022-10-05T22:06:37.605Z,86.76
2022-10-05T22:09:04.848Z,86.67
2022-10-05T22:11:31.936Z,86.73
2022-10-05T22:14:02.534Z,86.34
2022-10-05T22:16:38.699Z,85.13
2022-10-05T22:19:07.351Z,86.18
2022-10-05T22:21:38.158Z,86.87
2022-10-05T22:24:05.179Z,86.23
2022-10-05T22:26:31.963Z,86.10
2022-10-05T22:28:58.786Z,86.61
2022-10-05T22:31:25.619Z,87.19
2022-10-05T22:33:52.504Z,86.50
2022-10-05T22:36:19.977Z,85.88
2022-10-05T22:38:47.756Z,85.86
2022-10-05T22:41:18.047Z,85.39
2022-10-05T22:43:44.836Z,85.16
2022-10-05T22:46:12.592Z,85.42
2022-10-05T22:48:40.094Z,85.30
2022-10-05T22:51:07.358Z,85.69
2022-10-05T22:53:34.629Z,85.15
2022-10-05T22:56:10.390Z,84.66
2022-10-05T22:58:37.579Z,85.27
2022-10-05T23:01:06.358Z,85.08
2022-10-05T23:03:33.440Z,85.40
2022-10-05T23:06:05.642Z,85.41
2022-10-05T23:08:33.330Z,85.72
2022-10-05T23:11:05.043Z,85.02
2022-10-05T23:13:33.314Z,85.30
2022-10-05T23:16:11.172Z,83.78
2022-10-05T23:18:38.290Z,84.72
2022-10-05T23:21:08.503Z,84.75
2022-10-05T23:23:40.059Z,84.55
2022-10-05T23:26:08.493Z,84.31
2022-10-05T23:28:35.200Z,84.16
2022-10-05T23:31:06.737Z,83.80
2022-10-05T23:33:34.323Z,84.38
2022-10-05T23:36:03.963Z,84.29
2022-10-05T23:38:31.264Z,84.82
2022-10-05T23:41:01.079Z,84.45
2022-10-05T23:43:28.035Z,84.90
2022-10-05T23:45:56.141Z,84.58
2022-10-05T23:48:22.883Z,84.69
2022-10-05T23:50:49.928Z,84.61
2022-10-05T23:53:17.468Z,84.96
2022-10-05T23:55:44.256Z,84.76
2022-10-05T23:58:11.385Z,84.58
